Time;durP1;ratioP1;P1;durP2;ratioP2;P2;SDS_P1;SDS_P2;PMS_P1;PMS_P2;Temp;Humidity;BMP_temperature;BMP_pressure;BME280_temperature;BME280_humidity;BME280_pressure;Samples;Min_cycle;Max_cycle;Signal;HPM_P1;HPM_P2
2021/06/29 05:48:18;;;;;;;;;2.25;2.25;;;;;16.66;69.07;100173.13;5143799;23;45129;-92
2021/06/29 05:50:43;;;;;;;;;2.75;2.75;;;;;16.71;68.65;100170.91;4980783;28;45271;-91
2021/06/29 05:53:09;;;;;;;;;3.00;1.75;;;;;16.83;68.74;100177.03;4980270;28;45329;-92
2021/06/29 05:55:34;;;;;;;;;3.00;2.00;;;;;16.87;68.29;100171.28;4982448;28;45260;-89
2021/06/29 05:57:59;;;;;;;;;3.50;2.25;;;;;16.90;68.10;100167.47;5024601;23;45346;-90
2021/06/29 06:00:25;;;;;;;;;3.00;2.00;;;;;17.00;68.18;100176.44;4999463;28;45185;-91
2021/06/29 06:02:50;;;;;;;;;4.50;4.00;;;;;17.04;67.72;100180.53;5006826;28;44854;-91
2021/06/29 06:05:16;;;;;;;;;4.75;4.00;;;;;17.10;67.82;100181.81;5003838;28;45191;-90
2021/06/29 06:07:41;;;;;;;;;4.25;3.75;;;;;17.15;67.57;100182.28;4999352;28;45217;-90
2021/06/29 06:10:07;;;;;;;;;3.50;3.50;;;;;17.19;67.55;100183.72;5001214;28;45175;-94
2021/06/29 06:12:33;;;;;;;;;4.50;3.75;;;;;17.21;67.58;100191.63;4998844;28;46951;-89
2021/06/29 06:14:59;;;;;;;;;4.50;3.00;;;;;17.19;67.05;100185.56;4999726;28;45233;-89
2021/06/29 06:17:27;;;;;;;;;4.75;3.00;;;;;17.15;67.58;100184.13;4999462;28;45289;-88
2021/06/29 06:19:53;;;;;;;;;3.50;3.50;;;;;17.24;67.71;100192.22;4998855;28;45203;-93
2021/06/29 06:22:19;;;;;;;;;6.25;4.00;;;;;17.24;68.08;100184.16;4999127;28;45385;-94
2021/06/29 06:24:45;;;;;;;;;5.25;3.75;;;;;17.29;67.24;100182.88;4998954;28;45784;-90
2021/06/29 06:27:13;;;;;;;;;4.00;3.00;;;;;17.37;67.02;100196.47;5014214;28;45177;-91
2021/06/29 06:29:39;;;;;;;;;5.25;5.25;;;;;17.39;67.01;100191.84;4998456;28;45312;-92
2021/06/29 06:32:04;;;;;;;;;5.00;4.25;;;;;17.36;67.13;100189.44;4998337;28;46044;-91
2021/06/29 06:34:30;;;;;;;;;5.00;3.25;;;;;17.40;67.04;100197.06;4998536;28;45210;-93
2021/06/29 06:36:55;;;;;;;;;7.00;4.75;;;;;17.41;67.37;100193.41;5000563;28;45230;-93
2021/06/29 06:39:20;;;;;;;;;5.25;5.25;;;;;17.45;66.39;100199.34;4999207;28;45214;-93
2021/06/29 06:41:46;;;;;;;;;5.50;4.25;;;;;17.38;67.20;100188.28;4998659;28;46015;-92
2021/06/29 06:44:11;;;;;;;;;5.25;5.00;;;;;17.45;67.14;100206.56;4998269;28;45236;-91
2021/06/29 06:46:36;;;;;;;;;9.25;6.00;;;;;17.46;67.09;100201.03;4998233;28;45319;-93
2021/06/29 06:49:02;;;;;;;;;7.00;6.25;;;;;17.47;67.38;100205.41;4998700;28;45197;-92
2021/06/29 06:51:27;;;;;;;;;7.00;6.25;;;;;17.49;67.90;100205.28;4999811;28;45952;-90
2021/06/29 06:53:52;;;;;;;;;5.25;5.25;;;;;17.46;67.48;100200.16;4998689;28;45133;-91
2021/06/29 06:56:18;;;;;;;;;7.00;6.75;;;;;17.37;67.38;100197.34;5000343;28;45181;-91
2021/06/29 06:58:45;;;;;;;;;6.00;6.00;;;;;17.35;67.64;100199.31;4998060;28;45276;-92
2021/06/29 07:01:11;;;;;;;;;8.75;7.00;;;;;17.22;68.04;100190.66;5000143;28;45226;-91
2021/06/29 07:03:37;;;;;;;;;6.00;6.00;;;;;17.14;68.39;100202.06;5016729;28;45240;-92
2021/06/29 07:06:11;;;;;;;;;6.50;6.25;;;;;16.88;68.51;100175.69;5002944;28;44627;-94
2021/06/29 07:08:45;;;;;;;;;6.50;6.25;;;;;16.72;68.85;100169.94;5016439;28;45085;-94
2021/06/29 07:11:11;;;;;;;;;6.00;6.00;;;;;16.46;69.69;100143.53;5030144;28;47166;-94
2021/06/29 07:13:37;;;;;;;;;6.50;6.50;;;;;16.47;69.87;100139.00;5011565;28;45495;-94
2021/06/29 07:16:05;;;;;;;;;7.25;7.25;;;;;16.50;70.57;100152.16;5009902;28;45202;-93
2021/06/29 07:18:31;;;;;;;;;5.50;5.50;;;;;16.73;70.58;100183.22;5028650;28;45319;-94
2021/06/29 07:21:00;;;;;;;;;7.50;5.00;;;;;16.87;70.84;100208.00;5031085;28;46810;-94
2021/06/29 07:23:27;;;;;;;;;14.75;12.50;;;;;16.85;70.96;100215.34;5002793;28;44885;-94
2021/06/29 07:26:01;;;;;;;;;7.25;7.25;;;;;16.41;71.41;100134.19;5038640;28;44548;-94
2021/06/29 07:31:19;;;;;;;;;6.00;6.00;;;;;16.80;71.85;100209.53;5353451;23;45103;-92
2021/06/29 09:41:14;;;;;;;;;1.00;1.00;;;;;18.48;68.35;100231.25;4991004;28;45917;-92
2021/06/29 09:43:42;;;;;;;;;2.00;2.00;;;;;18.46;67.64;100221.47;4990621;28;46342;-85
2021/06/29 09:46:10;;;;;;;;;2.00;2.00;;;;;18.48;67.07;100226.72;4993988;28;45512;-80
2021/06/29 09:48:51;;;;;;;;;3.00;2.00;;;;;18.41;67.88;100226.44;4993234;28;45209;-80
2021/06/29 09:51:29;;;;;;;;;2.75;2.00;;;;;18.39;67.31;100214.13;4977880;28;45302;-80
2021/06/29 09:54:01;;;;;;;;;1.00;1.00;;;;;18.34;67.85;100205.63;4992716;28;47705;-81
2021/06/29 09:56:37;;;;;;;;;3.00;1.00;;;;;18.45;67.73;100222.47;4993385;28;45612;-81
2021/06/29 09:59:04;;;;;;;;;1.25;1.25;;;;;18.49;67.52;100230.25;4977899;28;45273;-81
2021/06/29 10:01:29;;;;;;;;;2.00;1.50;;;;;18.45;68.50;100222.47;4978079;28;45535;-81
2021/06/29 10:03:56;;;;;;;;;1.00;1.00;;;;;18.50;67.95;100226.56;4977995;28;45928;-81
2021/06/29 10:06:24;;;;;;;;;1.00;1.00;;;;;18.57;68.95;100227.69;4978020;28;45319;-81
2021/06/29 10:08:51;;;;;;;;;1.00;1.00;;;;;18.59;67.79;100218.47;4977885;28;45351;-80
2021/06/29 10:11:34;;;;;;;;;1.00;1.00;;;;;18.71;67.94;100229.94;4978050;28;45341;-80
2021/06/29 10:14:03;;;;;;;;;2.00;1.00;;;;;18.81;67.13;100219.09;4977687;28;45308;-81
2021/06/29 10:16:31;;;;;;;;;0.00;0.00;;;;;18.91;67.41;100221.81;4977858;28;45586;-81
2021/06/29 10:21:26;;;;;;;;;3.25;3.00;;;;;19.12;66.60;100217.03;4977369;28;45302;-80
2021/06/29 10:24:09;;;;;;;;;1.00;1.00;;;;;19.25;66.40;100213.16;4978004;28;45310;-89
2021/06/29 10:26:40;;;;;;;;;0.00;0.00;;;;;19.35;65.65;100211.25;4978882;28;45699;-89
2021/06/29 10:29:08;;;;;;;;;0.75;0.75;;;;;19.50;66.17;100222.41;4979352;28;45290;-90
2021/06/29 10:31:45;;;;;;;;;1.00;1.00;;;;;19.58;65.42;100217.09;4979018;28;45308;-90
2021/06/29 10:34:13;;;;;;;;;0.75;0.75;;;;;19.73;65.58;100219.28;4978638;28;45309;-90
2021/06/29 10:36:41;;;;;;;;;0.50;0.00;;;;;19.81;64.97;100224.78;4978837;28;45127;-89
2021/06/29 10:39:12;;;;;;;;;1.00;1.00;;;;;19.87;64.43;100224.16;4978763;28;45087;-90
2021/06/29 10:41:48;;;;;;;;;0.00;0.00;;;;;19.94;63.96;100222.56;4994061;28;45402;-89
2021/06/29 10:44:15;;;;;;;;;0.50;0.50;;;;;20.00;63.36;100221.94;4977357;28;48108;-90
2021/06/29 10:46:46;;;;;;;;;0.00;0.00;;;;;20.05;62.36;100215.22;4978839;28;46074;-90
2021/06/29 10:49:42;;;;;;;;;0.25;0.25;;;;;20.05;60.38;100213.38;4978702;28;45342;-90
2021/06/29 10:52:27;;;;;;;;;3.00;1.25;;;;;20.05;61.53;100209.81;4978020;28;45248;-90
2021/06/29 10:54:55;;;;;;;;;0.75;0.75;;;;;20.10;61.97;100210.22;4977776;28;46447;-91
2021/06/29 10:57:36;;;;;;;;;0.00;0.00;;;;;20.17;62.42;100209.44;4978725;28;45430;-90
2021/06/29 11:00:16;;;;;;;;;1.25;1.00;;;;;20.29;61.26;100211.88;4978462;28;45284;-90
2021/06/29 11:02:57;;;;;;;;;0.00;0.00;;;;;20.33;60.66;100197.91;4978585;28;45328;-91
2021/06/29 11:05:28;;;;;;;;;0.00;0.00;;;;;20.44;60.76;100199.50;4996750;28;48427;-91
2021/06/29 11:08:04;;;;;;;;;0.00;0.00;;;;;20.57;58.96;100209.06;4981945;28;45395;-90
2021/06/29 11:10:31;;;;;;;;;1.00;1.00;;;;;20.62;58.28;100206.72;4978455;28;45355;-91
2021/06/29 11:12:59;;;;;;;;;0.00;0.00;;;;;20.64;58.43;100204.72;4978990;28;45313;-93
2021/06/29 11:15:43;;;;;;;;;0.00;0.00;;;;;20.71;58.83;100204.94;4978245;28;46217;-90
2021/06/29 11:18:09;;;;;;;;;0.00;0.00;;;;;20.79;58.51;100197.75;4981311;28;45202;-91
2021/06/29 11:20:41;;;;;;;;;0.00;0.00;;;;;20.96;58.37;100195.13;4978507;28;45078;-92
2021/06/29 11:23:11;;;;;;;;;0.25;0.25;;;;;21.14;59.22;100186.94;4979183;28;45240;-91
2021/06/29 11:25:42;;;;;;;;;0.00;0.00;;;;;21.40;57.92;100191.41;4978585;28;45214;-92
2021/06/29 11:28:12;;;;;;;;;0.00;0.00;;;;;21.63;56.94;100188.97;4979891;28;45273;-91
2021/06/29 11:30:50;;;;;;;;;2.00;0.50;;;;;21.87;57.59;100191.69;4979457;28;45203;-91
2021/06/29 11:33:36;;;;;;;;;0.00;0.00;;;;;22.13;57.32;100182.56;4995571;28;45166;-93
2021/06/29 11:36:03;;;;;;;;;0.00;0.00;;;;;22.36;56.90;100185.50;4978160;28;45582;-93
2021/06/29 11:38:38;;;;;;;;;0.00;0.00;;;;;22.64;54.63;100192.41;4979089;28;45291;-93
2021/06/29 11:41:25;;;;;;;;;0.00;0.00;;;;;22.84;53.33;100187.44;4977309;28;45400;-93
2021/06/29 11:44:06;;;;;;;;;1.00;0.00;;;;;22.90;52.91;100193.00;4993841;28;45436;-88
2021/06/29 11:46:58;;;;;;;;;0.50;0.25;;;;;22.95;53.30;100195.19;4977639;28;45405;-92
2021/06/29 11:49:29;;;;;;;;;0.00;0.00;;;;;22.96;52.95;100193.31;4978316;28;45259;-91
2021/06/29 11:51:56;;;;;;;;;0.00;0.00;;;;;23.00;52.71;100194.66;4978246;28;45142;-89
2021/06/29 11:54:51;;;;;;;;;0.00;0.00;;;;;23.01;52.10;100186.34;4978730;28;45269;-90
2021/06/29 11:57:35;;;;;;;;;1.00;0.00;;;;;23.00;52.22;100179.25;4977550;28;46315;-91
2021/06/29 12:00:17;;;;;;;;;1.00;0.00;;;;;23.02;51.80;100190.75;4977948;28;45310;-93
2021/06/29 12:02:42;;;;;;;;;0.00;0.00;;;;;22.98;51.49;100192.13;4993271;28;45261;-90
2021/06/29 12:05:13;;;;;;;;;0.00;0.00;;;;;22.94;52.01;100193.50;4978143;28;45278;-93
2021/06/29 12:07:45;;;;;;;;;1.00;1.00;;;;;22.90;51.94;100184.88;4993579;28;45264;-91
2021/06/29 12:10:39;;;;;;;;;0.00;0.00;;;;;22.88;51.54;100195.03;4978678;28;45371;-91
2021/06/29 12:13:14;;;;;;;;;0.00;0.00;;;;;22.77;51.07;100183.72;4976900;28;45230;-91
2021/06/29 12:15:58;;;;;;;;;0.50;0.50;;;;;22.71;51.07;100177.13;4993114;28;45213;-94
2021/06/29 12:18:36;;;;;;;;;1.00;1.00;;;;;22.64;53.12;100181.56;4977700;28;45587;-92
2021/06/29 12:21:05;;;;;;;;;0.25;0.25;;;;;22.63;53.12;100187.97;4977925;28;45250;-91
2021/06/29 12:23:36;;;;;;;;;1.50;1.00;;;;;22.60;52.11;100185.63;4977959;28;45443;-91
2021/06/29 12:26:05;;;;;;;;;3.00;2.75;;;;;22.57;52.99;100200.34;4977895;28;45287;-91
2021/06/29 12:28:35;;;;;;;;;3.00;2.00;;;;;22.56;53.44;100193.22;4977839;28;45282;-92
2021/06/29 12:31:04;;;;;;;;;2.00;2.00;;;;;22.56;53.67;100202.22;4977957;28;45573;-91
2021/06/29 12:33:41;;;;;;;;;1.00;1.00;;;;;22.56;52.58;100198.66;4977094;28;45438;-90
2021/06/29 12:36:12;;;;;;;;;4.00;2.00;;;;;22.50;52.96;100204.78;4977728;28;45375;-90
2021/06/29 12:38:42;;;;;;;;;0.00;0.00;;;;;22.46;53.60;100203.41;4992693;28;47611;-91
2021/06/29 12:41:16;;;;;;;;;1.00;1.00;;;;;22.31;53.20;100189.69;4976983;28;45381;-92
2021/06/29 12:43:43;;;;;;;;;2.00;2.00;;;;;22.30;52.99;100190.72;4977395;28;45265;-91
2021/06/29 12:46:33;;;;;;;;;1.50;1.00;;;;;22.30;53.35;100194.25;4977253;28;45283;-92
2021/06/29 12:49:09;;;;;;;;;0.00;0.00;;;;;22.29;53.91;100197.13;4976882;28;45305;-92
2021/06/29 12:51:45;;;;;;;;;1.00;1.00;;;;;22.31;53.49;100192.41;4977190;28;45586;-90
2021/06/29 12:54:12;;;;;;;;;1.00;1.00;;;;;22.35;53.67;100189.22;4977373;28;45288;-93
2021/06/29 12:56:49;;;;;;;;;3.75;1.75;;;;;22.44;53.63;100189.22;4977254;28;45280;-89
2021/06/29 12:59:17;;;;;;;;;2.75;1.00;;;;;22.50;54.29;100197.50;4977166;28;46214;-90
2021/06/29 13:01:45;;;;;;;;;2.00;2.00;;;;;22.53;52.67;100202.56;4976852;28;45219;-90
2021/06/29 13:04:13;;;;;;;;;3.25;2.00;;;;;22.48;52.57;100196.81;4977129;28;45307;-90
2021/06/29 13:06:41;;;;;;;;;2.50;1.25;;;;;22.50;52.75;100208.34;4976874;28;45328;-90
2021/06/29 13:09:09;;;;;;;;;1.00;1.00;;;;;22.43;52.76;100196.47;4976898;28;45592;-90
2021/06/29 13:11:35;;;;;;;;;1.00;1.00;;;;;22.51;52.10;100196.47;4976702;28;45249;-91
2021/06/29 13:14:11;;;;;;;;;2.00;1.00;;;;;22.49;52.75;100194.94;4977413;28;45168;-91
2021/06/29 13:16:38;;;;;;;;;0.00;0.00;;;;;22.46;52.90;100195.28;4980328;28;45252;-92
2021/06/29 13:19:16;;;;;;;;;1.00;1.00;;;;;22.43;52.30;100199.19;4980310;28;46226;-90
2021/06/29 13:21:41;;;;;;;;;0.00;0.00;;;;;22.45;52.47;100201.75;4980714;28;45206;-91
2021/06/29 13:24:14;;;;;;;;;1.00;1.00;;;;;22.34;52.25;100192.94;4979639;28;45191;-93
2021/06/29 13:26:54;;;;;;;;;1.00;1.00;;;;;22.37;52.15;100205.28;4980152;28;45145;-92
2021/06/29 13:29:26;;;;;;;;;1.00;1.00;;;;;22.34;51.83;100200.22;4980252;28;45293;-91
2021/06/29 13:31:52;;;;;;;;;1.00;1.00;;;;;22.28;52.20;100192.75;4979745;28;45502;-91
2021/06/29 13:34:24;;;;;;;;;0.25;0.25;;;;;22.22;52.09;100195.13;4980239;28;45209;-92
2021/06/29 13:36:50;;;;;;;;;1.00;1.00;;;;;22.22;52.09;100202.41;4980163;28;45210;-90
2021/06/29 13:39:23;;;;;;;;;1.00;1.00;;;;;22.03;52.33;100163.81;4979842;28;45375;-91
2021/06/29 13:41:49;;;;;;;;;1.00;1.00;;;;;22.13;52.33;100179.88;4979873;28;45565;-91
2021/06/29 13:44:15;;;;;;;;;1.00;1.00;;;;;22.14;52.21;100184.28;4980450;28;45217;-90
2021/06/29 13:46:42;;;;;;;;;1.75;1.50;;;;;22.14;52.03;100184.28;4980346;28;45223;-91
2021/06/29 13:49:18;;;;;;;;;2.00;1.50;;;;;22.16;51.70;100189.53;4980143;28;45181;-91
2021/06/29 13:51:44;;;;;;;;;2.25;1.00;;;;;22.14;51.79;100194.28;4978499;28;45233;-90
2021/06/29 13:54:27;;;;;;;;;2.75;1.00;;;;;22.11;51.62;100190.03;4980254;28;45227;-90
2021/06/29 13:56:52;;;;;;;;;2.00;1.25;;;;;22.01;52.83;100189.38;4994815;28;45394;-90
2021/06/29 13:59:36;;;;;;;;;1.00;1.00;;;;;21.95;53.31;100190.88;4980020;28;45313;-92
2021/06/29 14:02:02;;;;;;;;;2.00;1.00;;;;;21.87;54.13;100193.56;4979970;28;45432;-92
2021/06/29 14:04:28;;;;;;;;;1.50;1.50;;;;;21.82;53.97;100199.50;4979752;28;45319;-90
2021/06/29 14:07:08;;;;;;;;;1.00;1.00;;;;;21.75;54.12;100189.50;4979758;28;45297;-92
2021/06/29 14:09:35;;;;;;;;;1.00;1.00;;;;;21.71;54.37;100195.25;4979645;28;45219;-89
2021/06/29 14:12:03;;;;;;;;;1.00;1.00;;;;;21.71;54.83;100197.09;4979403;28;45226;-92
2021/06/29 14:14:28;;;;;;;;;2.75;1.00;;;;;21.65;54.33;100186.97;4978528;28;45264;-90
2021/06/29 14:16:57;;;;;;;;;1.75;1.50;;;;;21.53;54.42;100162.06;4994798;28;45385;-90
2021/06/29 14:19:24;;;;;;;;;1.00;1.00;;;;;21.71;53.21;100195.25;4994739;28;47371;-90
2021/06/29 14:21:50;;;;;;;;;1.00;1.00;;;;;21.52;52.57;100166.63;4994309;28;45551;-90
2021/06/29 14:24:16;;;;;;;;;1.00;1.00;;;;;21.70;52.86;100198.94;4979505;28;45251;-90
2021/06/29 14:26:42;;;;;;;;;2.00;2.00;;;;;21.70;52.82;100196.25;4978964;28;45283;-91
2021/06/29 14:29:07;;;;;;;;;4.00;4.00;;;;;21.63;53.39;100183.56;4978848;28;45457;-90
2021/06/29 14:31:33;;;;;;;;;3.75;2.50;;;;;21.70;52.74;100190.00;4978885;28;46302;-91
2021/06/29 14:33:59;;;;;;;;;1.00;1.00;;;;;21.69;52.64;100191.00;4979211;28;45283;-92
2021/06/29 14:36:24;;;;;;;;;2.00;2.00;;;;;21.68;53.11;100186.63;4979861;28;45382;-91
2021/06/29 14:38:50;;;;;;;;;4.00;1.00;;;;;21.67;52.66;100199.28;4979582;28;46210;-90
2021/06/29 14:41:17;;;;;;;;;1.00;1.00;;;;;21.45;52.17;100162.00;4979093;28;45647;-90
2021/06/29 14:43:43;;;;;;;;;0.75;0.75;;;;;21.61;52.51;100196.41;4980053;28;45211;-91
2021/06/29 14:46:09;;;;;;;;;2.00;2.00;;;;;21.57;52.23;100192.34;4979538;28;45259;-92
2021/06/29 14:48:34;;;;;;;;;1.00;1.00;;;;;21.53;52.54;100195.38;4979596;28;45944;-90
2021/06/29 14:51:02;;;;;;;;;1.00;1.00;;;;;21.48;51.83;100195.00;4979551;28;45237;-91
2021/06/29 14:53:27;;;;;;;;;1.25;1.25;;;;;21.46;52.25;100197.03;4980320;28;45221;-91
2021/06/29 14:55:53;;;;;;;;;2.00;2.00;;;;;21.44;52.63;100190.09;4979575;28;45162;-92
2021/06/29 14:58:18;;;;;;;;;1.00;1.00;;;;;;;;4979644;28;46216;-90
2021/06/29 15:00:44;;;;;;;;;1.00;1.00;;;;;21.34;52.80;100182.94;4979013;28;45278;-92
2021/06/29 15:03:11;;;;;;;;;1.00;1.00;;;;;21.33;52.21;100188.53;4980234;28;45392;-90
2021/06/29 15:05:38;;;;;;;;;1.00;1.00;;;;;21.32;53.01;100179.56;4980725;28;45666;-90
2021/06/29 15:08:04;;;;;;;;;1.50;1.50;;;;;21.30;52.10;100195.09;4980926;28;45237;-91
2021/06/29 15:10:29;;;;;;;;;1.25;1.25;;;;;21.25;53.11;100181.25;4980730;28;45626;-91
2021/06/29 15:12:58;;;;;;;;;1.00;1.00;;;;;21.29;52.36;100184.44;4979354;28;45201;-90
2021/06/29 15:15:23;;;;;;;;;1.00;1.00;;;;;21.28;53.48;100182.78;4978835;28;45108;-92
2021/06/29 15:17:49;;;;;;;;;2.25;2.00;;;;;21.26;54.20;100180.22;4979370;28;45230;-93
2021/06/29 15:20:19;;;;;;;;;1.00;1.00;;;;;21.26;54.35;100180.22;4978824;28;45287;-93
2021/06/29 15:22:46;;;;;;;;;3.25;1.25;;;;;21.22;54.40;100181.56;4963279;28;45203;-92
2021/06/29 15:25:14;;;;;;;;;3.25;1.75;;;;;21.13;54.52;100175.25;4979150;28;45160;-92
2021/06/29 15:27:39;;;;;;;;;0.75;0.75;;;;;21.15;55.06;100188.63;4978874;28;45495;-90
2021/06/29 15:30:07;;;;;;;;;3.00;2.00;;;;;21.08;55.85;100179.47;4978797;28;45298;-91
2021/06/29 15:32:32;;;;;;;;;2.00;1.00;;;;;21.06;56.58;100178.78;4979128;28;45241;-92
2021/06/29 15:35:04;;;;;;;;;2.75;2.00;;;;;20.97;56.72;100159.81;4979084;28;45189;-91
2021/06/29 15:37:32;;;;;;;;;1.50;0.00;;;;;20.97;56.70;100177.91;4978870;28;45316;-92
2021/06/29 15:39:58;;;;;;;;;1.00;1.00;;;;;20.94;57.55;100176.38;4979029;28;45300;-92
2021/06/29 15:42:23;;;;;;;;;0.75;0.75;;;;;20.89;57.01;100177.88;4979924;28;45331;-90
2021/06/29 15:44:49;;;;;;;;;1.00;1.00;;;;;20.80;57.20;100169.72;4979136;28;45176;-91
2021/06/29 15:47:14;;;;;;;;;1.00;1.00;;;;;20.73;57.86;100174.06;4978973;28;45260;-91
2021/06/29 15:49:39;;;;;;;;;1.75;1.75;;;;;20.72;57.69;100177.75;4978524;28;45094;-93
2021/06/29 15:52:05;;;;;;;;;3.00;3.00;;;;;20.59;57.86;100167.34;4978616;28;45091;-91
2021/06/29 15:54:30;;;;;;;;;4.00;2.75;;;;;20.60;57.90;100170.94;4979208;28;45114;-91
2021/06/29 15:56:56;;;;;;;;;3.00;3.00;;;;;20.49;58.15;100166.63;4978839;28;45312;-90
2021/06/29 15:59:21;;;;;;;;;2.75;2.75;;;;;20.46;58.60;100178.59;4978928;28;45217;-92
2021/06/29 16:01:47;;;;;;;;;3.75;2.00;;;;;20.39;58.85;100187.50;4978985;28;45233;-90
2021/06/29 16:04:16;;;;;;;;;3.00;3.00;;;;;20.30;59.58;100182.03;4978147;28;45360;-93
2021/06/29 16:06:43;;;;;;;;;3.00;3.00;;;;;20.23;59.52;100193.63;4978198;28;46043;-92
2021/06/29 16:09:09;;;;;;;;;4.00;3.00;;;;;20.17;60.21;100200.50;4976982;28;45248;-90
2021/06/29 16:11:36;;;;;;;;;2.75;2.00;;;;;20.11;60.71;100203.78;4977617;28;45212;-90
2021/06/29 16:14:03;;;;;;;;;4.00;3.00;;;;;20.08;60.69;100199.56;4977446;28;45268;-90
2021/06/29 16:16:29;;;;;;;;;4.25;3.00;;;;;20.03;61.48;100198.34;4976976;28;46097;-91
2021/06/29 16:18:55;;;;;;;;;2.00;2.00;;;;;20.01;61.22;100198.50;4977633;28;45296;-89
2021/06/29 16:21:26;;;;;;;;;3.75;3.75;;;;;19.96;61.85;100207.03;4978731;28;45270;-90
2021/06/29 16:23:54;;;;;;;;;3.00;3.00;;;;;19.88;62.57;100204.28;4977403;28;45402;-89
2021/06/29 16:26:20;;;;;;;;;4.25;3.25;;;;;19.81;62.81;100209.44;4976231;28;45478;-89
2021/06/29 16:28:47;;;;;;;;;2.50;2.50;;;;;19.76;63.32;100213.56;4976775;28;45602;-90
2021/06/29 16:31:14;;;;;;;;;2.00;2.00;;;;;19.64;63.42;100211.09;4959129;28;45249;-89
2021/06/29 16:33:39;;;;;;;;;3.00;2.00;;;;;19.58;63.44;100205.44;4976745;28;45336;-89
2021/06/29 16:36:08;;;;;;;;;2.00;2.00;;;;;19.58;62.85;100221.63;4976632;28;46212;-88
2021/06/29 16:38:35;;;;;;;;;2.00;2.00;;;;;19.47;63.27;100223.53;4976624;28;45591;-90
2021/06/29 16:41:00;;;;;;;;;2.00;2.00;;;;;19.39;63.21;100225.28;4975238;28;45315;-88
2021/06/29 16:43:25;;;;;;;;;3.25;1.75;;;;;19.24;63.78;100216.84;4975221;28;45460;-88
2021/06/29 16:45:51;;;;;;;;;2.00;2.00;;;;;19.24;63.71;100231.19;4974744;28;45327;-89
2021/06/29 16:48:16;;;;;;;;;1.75;1.75;;;;;19.17;63.66;100231.91;4973699;28;45158;-88
2021/06/29 16:50:42;;;;;;;;;2.00;2.00;;;;;19.10;63.53;100235.22;4977402;28;45288;-88
2021/06/29 16:53:09;;;;;;;;;2.00;2.00;;;;;19.05;63.80;100240.19;4978436;28;45505;-88
2021/06/29 16:55:35;;;;;;;;;1.25;1.00;;;;;18.95;63.23;100232.16;4979196;28;46118;-88
2021/06/29 16:58:00;;;;;;;;;4.50;1.00;;;;;18.95;63.95;100244.75;4978986;28;45295;-89
2021/06/29 17:00:26;;;;;;;;;6.00;6.00;;;;;18.87;64.10;100241.94;4978717;28;45279;-89
2021/06/29 17:02:51;;;;;;;;;185.00;168.00;;;;;18.81;64.37;100246.03;4978915;28;45227;-89
2021/06/29 17:05:16;;;;;;;;;362.00;336.00;;;;;18.71;64.28;100240.72;4978358;28;45891;-90
2021/06/29 17:07:42;;;;;;;;;393.00;357.00;;;;;18.67;64.10;100242.00;4976903;28;45202;-90
2021/06/29 17:10:08;;;;;;;;;393.75;343.25;;;;;18.61;64.42;100245.25;4978232;28;45563;-90
2021/06/29 17:12:33;;;;;;;;;51.50;43.00;;;;;18.52;64.38;100248.81;4979527;28;45137;-89
2021/06/29 17:14:59;;;;;;;;;8.75;8.75;;;;;18.41;64.45;100245.28;4981081;28;45279;-91
2021/06/29 17:17:26;;;;;;;;;7.50;6.50;;;;;18.24;64.97;100236.09;4979046;28;45221;-90
2021/06/29 17:19:52;;;;;;;;;5.00;5.00;;;;;18.22;65.21;100248.81;4978807;28;45248;-90
2021/06/29 17:22:17;;;;;;;;;4.00;4.00;;;;;18.15;65.48;100246.84;4979464;28;45245;-90
2021/06/29 17:24:42;;;;;;;;;4.00;3.00;;;;;18.08;66.46;100251.94;4978007;28;46683;-90
2021/06/29 17:27:07;;;;;;;;;3.75;3.50;;;;;18.00;66.41;100244.59;4977145;28;45270;-89
2021/06/29 17:29:33;;;;;;;;;3.00;3.00;;;;;17.89;66.90;100242.84;4978215;28;45262;-89
2021/06/29 17:31:59;;;;;;;;;3.25;3.00;;;;;17.91;67.20;100238.22;4978763;28;45248;-92
2021/06/29 17:34:25;;;;;;;;;3.25;2.00;;;;;17.87;67.64;100235.91;4978926;28;46689;-88
2021/06/29 17:36:50;;;;;;;;;3.25;2.00;;;;;17.84;67.85;100237.06;4978451;28;45205;-90
2021/06/29 17:39:16;;;;;;;;;2.00;2.00;;;;;17.80;67.62;100243.69;4936634;28;1215757;-88
2021/06/29 17:41:41;;;;;;;;;2.00;2.00;;;;;17.72;68.10;100247.06;4980191;28;45258;-90
2021/06/29 17:44:07;;;;;;;;;3.00;2.00;;;;;17.73;68.16;100251.47;4978960;28;45445;-90
2021/06/29 17:46:32;;;;;;;;;2.00;2.00;;;;;17.63;68.43;100242.53;4979743;28;45220;-90
2021/06/29 17:48:58;;;;;;;;;2.00;2.00;;;;;17.65;68.80;100245.06;4979348;28;45299;-90
2021/06/29 17:51:24;;;;;;;;;3.50;2.00;;;;;17.62;68.34;100238.13;4975631;28;45214;-90
2021/06/29 17:53:49;;;;;;;;;1.00;1.00;;;;;17.63;68.30;100252.41;4969108;28;45310;-89
2021/06/29 17:56:18;;;;;;;;;2.00;2.00;;;;;17.59;68.89;100252.69;4979012;28;45205;-91
2021/06/29 17:58:45;;;;;;;;;1.25;1.25;;;;;17.58;69.28;100266.28;4979420;28;45205;-90
2021/06/29 18:01:10;;;;;;;;;1.25;1.00;;;;;17.51;69.48;100249.00;4978700;28;45274;-88
2021/06/29 18:03:36;;;;;;;;;2.00;2.00;;;;;17.43;69.38;100247.00;4978638;28;45190;-90
2021/06/29 18:06:01;;;;;;;;;1.50;1.50;;;;;17.49;69.38;100265.25;4978340;28;45149;-89
2021/06/29 18:08:26;;;;;;;;;2.25;1.00;;;;;17.33;69.43;100241.59;4978619;28;45226;-88
2021/06/29 18:10:52;;;;;;;;;2.00;2.00;;;;;17.37;69.52;100260.97;4978183;28;45569;-89
2021/06/29 18:13:17;;;;;;;;;2.50;1.75;;;;;17.24;69.70;100256.69;4978031;28;45397;-90
2021/06/29 18:15:44;;;;;;;;;3.25;2.00;;;;;17.19;70.67;100258.09;4978261;28;45304;-89
2021/06/29 18:18:10;;;;;;;;;2.25;2.25;;;;;17.17;70.36;100268.97;4978288;28;45301;-89
2021/06/29 18:20:35;;;;;;;;;3.50;3.00;;;;;17.02;70.99;100263.09;4977991;28;45264;-88
2021/06/29 18:23:00;;;;;;;;;3.25;3.25;;;;;17.02;71.55;100270.31;4976870;28;46892;-88
2021/06/29 18:25:26;;;;;;;;;2.50;2.50;;;;;16.88;71.88;100260.75;4978580;28;45246;-93
2021/06/29 18:27:51;;;;;;;;;4.75;4.00;;;;;16.90;72.26;100272.22;4979139;28;45162;-87
2021/06/29 18:30:17;;;;;;;;;3.50;3.25;;;;;16.69;72.24;100232.78;4978044;28;45334;-88
2021/06/29 18:32:42;;;;;;;;;4.00;4.00;;;;;16.89;73.06;100281.28;4977802;28;46393;-89
2021/06/29 18:35:09;;;;;;;;;7.00;6.00;;;;;16.85;72.88;100272.59;4977852;28;45253;-88
2021/06/29 18:37:34;;;;;;;;;5.00;5.00;;;;;16.81;72.85;100271.13;4993133;28;45233;-88
2021/06/29 18:39:59;;;;;;;;;5.00;5.00;;;;;16.77;73.29;100271.53;4960279;28;45198;-88
2021/06/29 18:42:25;;;;;;;;;6.00;6.00;;;;;16.71;73.73;100271.06;4977939;28;45449;-89
2021/06/29 18:44:50;;;;;;;;;8.00;7.25;;;;;16.59;73.46;100266.78;4976460;28;45190;-88
2021/06/29 18:47:16;;;;;;;;;117.00;113.67;;;;;16.41;73.74;100244.19;4977982;28;45203;-88
2021/06/29 18:49:41;;;;;;;;;295.50;268.00;;;;;16.59;74.57;100276.63;4977882;28;45222;-87
2021/06/29 18:52:08;;;;;;;;;66.00;50.75;;;;;16.58;74.00;100281.16;4978218;28;46077;-87
2021/06/29 18:54:34;;;;;;;;;204.25;189.25;;;;;16.49;74.25;100263.16;4977752;28;45205;-89
2021/06/29 18:57:00;;;;;;;;;607.50;524.25;;;;;16.55;74.30;100276.06;4978114;28;45169;-91
2021/06/29 18:59:25;;;;;;;;;76.25;58.50;;;;;16.51;74.30;100270.09;4960874;28;45229;-88
2021/06/29 19:01:57;;;;;;;;;20.75;18.50;;;;;16.48;74.01;100273.03;4977789;28;45201;-88
2021/06/29 19:04:23;;;;;;;;;38.50;35.00;;;;;16.44;74.09;100279.66;4961657;28;45743;-91
2021/06/29 19:06:49;;;;;;;;;27.25;24.50;;;;;16.44;74.71;100274.28;4978269;28;45152;-87
2021/06/29 19:09:14;;;;;;;;;10.50;9.00;;;;;16.43;74.33;100271.72;4977680;28;45306;-88
2021/06/29 19:11:41;;;;;;;;;10.25;8.00;;;;;16.30;74.37;100253.13;4977495;28;46141;-88
2021/06/29 19:14:06;;;;;;;;;8.00;8.00;;;;;16.42;74.69;100264.66;4976132;28;45594;-88
2021/06/29 19:16:32;;;;;;;;;8.75;7.75;;;;;16.32;74.37;100251.19;4978984;28;45456;-87
2021/06/29 19:18:59;;;;;;;;;7.50;7.25;;;;;16.35;74.62;100261.66;4978220;28;45261;-91
2021/06/29 19:21:29;;;;;;;;;8.50;7.75;;;;;16.41;74.60;100271.88;4978135;28;45463;-88
2021/06/29 19:23:55;;;;;;;;;8.50;6.00;;;;;16.35;74.36;100262.50;4992293;28;45653;-87
2021/06/29 19:26:26;;;;;;;;;6.00;6.00;;;;;16.28;74.86;100260.47;4977920;28;45193;-88
2021/06/29 19:28:53;;;;;;;;;6.50;6.25;;;;;16.36;74.57;100272.25;4977605;28;45245;-87
2021/06/29 19:31:19;;;;;;;;;10.00;8.25;;;;;16.29;74.50;100263.03;4977777;28;45518;-86